createdAt,value
2023-04-07T00:00:00.487Z,75.5
2023-04-07T00:01:00.488Z,75.9
2023-04-07T00:02:00.566Z,75.8
2023-04-07T00:06:00.453Z,75.2
2023-04-07T00:07:00.448Z,75.5
2023-04-07T00:08:00.458Z,75.9
2023-04-07T00:09:00.440Z,75.8
2023-04-07T00:10:00.497Z,75.2
2023-04-07T00:11:00.447Z,75.2
2023-04-07T00:12:00.458Z,75.2
2023-04-07T00:13:00.476Z,75.2
2023-04-07T00:14:00.481Z,75.9
2023-04-07T00:15:00.462Z,75.2
2023-04-07T00:16:00.568Z,75.8
2023-04-07T00:17:00.461Z,75.5
2023-04-07T00:18:00.503Z,75.8
2023-04-07T00:19:00.460Z,75.8
2023-04-07T00:20:00.488Z,75.8
2023-04-07T00:21:00.464Z,75.8
2023-04-07T00:22:00.451Z,75.8
2023-04-07T00:23:00.487Z,75.8
2023-04-07T00:24:00.452Z,75.8
2023-04-07T00:25:00.481Z,75.2
2023-04-07T00:26:00.482Z,75.2
2023-04-07T00:27:00.476Z,75.2
2023-04-07T00:28:00.459Z,75.2
2023-04-07T00:29:00.462Z,74.6
2023-04-07T00:30:00.487Z,74.6
2023-04-07T00:31:00.614Z,74.6
2023-04-07T00:32:00.481Z,74.6
2023-04-07T00:33:00.544Z,74.6
2023-04-07T00:34:00.482Z,74.6
2023-04-07T00:35:02.145Z,74.9
2023-04-07T00:36:00.509Z,74.9
2023-04-07T00:37:00.517Z,74.6
2023-04-07T00:38:00.484Z,74.6
2023-04-07T00:39:00.475Z,74.3
2023-04-07T00:40:00.480Z,74.3
2023-04-07T00:41:00.495Z,74.6
2023-04-07T00:42:00.522Z,74.6
2023-04-07T00:43:00.520Z,74
2023-04-07T00:44:00.484Z,74
2023-04-07T00:45:00.473Z,74.6
2023-04-07T00:46:00.528Z,74.6
2023-04-07T00:47:00.491Z,74.3
2023-04-07T00:48:00.560Z,74.6
2023-04-07T00:49:00.537Z,74.3
2023-04-07T00:50:00.500Z,74.3
2023-04-07T00:51:00.487Z,74.3
2023-04-07T00:52:00.486Z,74.6
2023-04-07T00:53:00.482Z,74.6
2023-04-07T00:54:00.509Z,74.6
2023-04-07T00:55:00.497Z,74.6
2023-04-07T00:56:00.491Z,74.6
2023-04-07T00:57:00.508Z,74.6
2023-04-07T00:58:00.519Z,75.2
2023-04-07T00:59:00.509Z,75.5
2023-04-07T01:00:00.762Z,75.2
2023-04-07T01:01:00.520Z,75.8
2023-04-07T01:02:00.618Z,75.5
2023-04-07T01:03:00.755Z,75.8
2023-04-07T01:04:00.766Z,75.5
2023-04-07T01:05:00.692Z,75.2
2023-04-07T01:06:00.525Z,75.2
2023-04-07T01:07:00.539Z,74.9
2023-04-07T01:08:00.521Z,74.9
2023-04-07T01:09:00.643Z,75.8
2023-04-07T01:10:00.666Z,75.5
2023-04-07T01:11:00.554Z,75.5
2023-04-07T01:12:00.668Z,75.2
2023-04-07T01:13:00.518Z,75.2
2023-04-07T01:14:00.529Z,75.2
2023-04-07T01:15:00.578Z,75.8
2023-04-07T01:16:00.602Z,75.5
2023-04-07T01:17:00.515Z,75.2
2023-04-07T01:18:00.540Z,75.2
2023-04-07T01:19:00.616Z,75.2
2023-04-07T01:20:00.603Z,75.2
2023-04-07T01:21:00.526Z,75.2
2023-04-07T01:22:00.561Z,75.2
2023-04-07T01:23:00.511Z,75.8
2023-04-07T01:24:00.540Z,76.4
2023-04-07T01:25:00.539Z,76.1
2023-04-07T01:26:00.543Z,76.4
2023-04-07T01:27:00.535Z,76.7
2023-04-07T01:28:00.581Z,77
2023-04-07T01:29:00.582Z,76.7
2023-04-07T01:30:00.757Z,76.4
2023-04-07T01:31:00.673Z,76.4
2023-04-07T01:32:00.664Z,77.3
2023-04-07T01:33:00.566Z,77.3
2023-04-07T01:34:00.669Z,77.6
2023-04-07T01:35:00.637Z,77.7
2023-04-07T01:36:00.716Z,78
2023-04-07T01:37:00.750Z,77.6
2023-04-07T01:38:00.736Z,77.6
2023-04-07T01:39:00.731Z,77.9
2023-04-07T01:40:00.831Z,78.2
2023-04-07T01:41:00.693Z,78.6
2023-04-07T01:42:00.720Z,78.8
2023-04-07T01:43:00.726Z,79.2
2023-04-07T01:44:00.726Z,79.5
2023-04-07T01:45:00.798Z,79.5
2023-04-07T01:46:00.853Z,79.5
2023-04-07T01:47:00.861Z,79.5
2023-04-07T01:48:00.904Z,78.8
2023-04-07T01:49:00.807Z,78.8
2023-04-07T01:50:00.706Z,78.2
2023-04-07T01:51:00.565Z,78.2
2023-04-07T01:52:00.571Z,78.2
2023-04-07T01:53:00.584Z,78.9
2023-04-07T01:54:00.538Z,79.5
2023-04-07T01:55:00.539Z,79.5
2023-04-07T01:56:00.611Z,78.5
2023-04-07T01:57:00.573Z,78.2
2023-04-07T01:58:00.567Z,78.2
2023-04-07T01:59:00.553Z,78.2
2023-04-07T02:00:00.588Z,78.5
2023-04-07T02:01:00.999Z,78.8
2023-04-07T02:02:00.971Z,78.8
2023-04-07T02:03:00.974Z,78.5
2023-04-07T02:04:01.013Z,78.8
2023-04-07T02:05:00.884Z,78.2
2023-04-07T02:06:00.883Z,78.5
2023-04-07T02:07:00.877Z,78.2
2023-04-07T02:08:00.894Z,77.6
2023-04-07T02:09:00.867Z,77.6
2023-04-07T02:10:00.916Z,77.6
2023-04-07T02:11:00.906Z,77.6
2023-04-07T02:12:00.886Z,77.6
2023-04-07T02:13:00.888Z,77.6
2023-04-07T02:14:00.873Z,77.9
2023-04-07T02:15:00.868Z,78.2
2023-04-07T02:16:00.911Z,77.9
2023-04-07T02:17:00.872Z,77.6
2023-04-07T02:18:00.989Z,77.6
2023-04-07T02:19:01.925Z,77.6
2023-04-07T02:20:00.902Z,77.6
2023-04-07T02:21:00.867Z,78.5
2023-04-07T02:22:00.894Z,78.2
2023-04-07T02:23:00.910Z,77.9
2023-04-07T02:24:00.910Z,78.2
2023-04-07T02:25:00.885Z,77.9
2023-04-07T02:26:00.883Z,78.2
2023-04-07T02:27:00.902Z,77.9
2023-04-07T02:28:00.917Z,77.6
2023-04-07T02:29:00.897Z,77.6
2023-04-07T02:30:00.933Z,78.8
2023-04-07T02:31:00.917Z,78.8
2023-04-07T02:32:00.928Z,78.8
2023-04-07T02:33:00.953Z,79.1
2023-04-07T02:34:00.908Z,79.4
2023-04-07T02:35:00.896Z,80.1
2023-04-07T02:36:00.884Z,80.1
2023-04-07T02:37:00.957Z,80
2023-04-07T02:38:00.914Z,80.1
2023-04-07T02:39:00.927Z,79.4
2023-04-07T02:40:00.914Z,79.7
2023-04-07T02:41:00.900Z,80.1
2023-04-07T02:42:00.910Z,80.7
2023-04-07T02:43:00.925Z,80
2023-04-07T02:44:00.916Z,80
2023-04-07T02:45:00.914Z,79.4
2023-04-07T02:46:00.981Z,79.1
2023-04-07T02:47:00.897Z,78.8
2023-04-07T02:48:00.980Z,78.8
2023-04-07T02:49:00.910Z,79.4
2023-04-07T02:50:00.977Z,79.1
2023-04-07T02:51:00.909Z,80
2023-04-07T02:52:00.932Z,80
2023-04-07T02:53:00.947Z,79.1
2023-04-07T02:54:00.932Z,79.4
2023-04-07T02:55:01.043Z,79.7
2023-04-07T02:56:00.947Z,80
2023-04-07T02:57:01.072Z,79.4
2023-04-07T02:58:00.948Z,80
2023-04-07T02:59:00.918Z,79.4
2023-04-07T03:00:01.232Z,78.8
2023-04-07T03:01:00.985Z,79.7
2023-04-07T03:02:01.009Z,80.4
2023-04-07T03:03:01.004Z,80
2023-04-07T03:04:01.150Z,80.7
2023-04-07T03:05:01.003Z,80
2023-04-07T03:06:00.928Z,80.7
2023-04-07T03:07:00.963Z,81.3
2023-04-07T03:08:01.025Z,80.7
2023-04-07T03:09:00.975Z,80.3
2023-04-07T03:10:01.137Z,80.7
2023-04-07T03:11:00.991Z,80.6
2023-04-07T03:12:00.993Z,81
2023-04-07T03:13:01.014Z,80.6
2023-04-07T03:14:00.976Z,80
2023-04-07T03:15:00.984Z,80.3
2023-04-07T03:16:01.153Z,80.6
2023-04-07T03:17:00.951Z,80.7
2023-04-07T03:18:00.963Z,81.3
2023-04-07T03:19:00.949Z,81.3
2023-04-07T03:20:01.009Z,81.9
2023-04-07T03:21:00.939Z,81.6
2023-04-07T03:22:00.948Z,81.9
2023-04-07T03:23:00.975Z,81.9
2023-04-07T03:24:00.975Z,81.9
2023-04-07T03:25:00.985Z,81.9
2023-04-07T03:26:01.046Z,82.2
2023-04-07T03:27:00.995Z,82.2
2023-04-07T03:28:00.955Z,82.5
2023-04-07T03:29:01.021Z,83.1
2023-04-07T03:30:01.096Z,83.1
2023-04-07T03:31:01.079Z,83.1
2023-04-07T03:32:00.948Z,83.1
2023-04-07T03:33:01.024Z,83.1
2023-04-07T03:34:00.979Z,83.1
2023-04-07T03:35:00.962Z,83.4
2023-04-07T03:36:01.008Z,83.4
2023-04-07T03:37:00.961Z,83.1
2023-04-07T03:38:00.944Z,83.1
2023-04-07T03:39:01.011Z,83.1
2023-04-07T03:40:00.980Z,83.4
2023-04-07T03:41:00.995Z,83.4
2023-04-07T03:42:01.008Z,83.7
2023-04-07T03:43:00.968Z,83.7
2023-04-07T03:44:00.998Z,83.7
2023-04-07T03:45:01.026Z,83.7
2023-04-07T03:46:00.992Z,83.7
2023-04-07T03:47:01.007Z,83.7
2023-04-07T03:48:01.068Z,83.7
2023-04-07T03:49:00.972Z,83.7
2023-04-07T03:50:01.043Z,83.7
2023-04-07T03:51:01.002Z,84
2023-04-07T03:52:01.025Z,84.3
2023-04-07T03:53:01.017Z,84.3
2023-04-07T03:54:01.016Z,84.3
2023-04-07T03:55:00.980Z,84.3
2023-04-07T03:56:01.094Z,84.3
2023-04-07T03:57:00.975Z,84.3
2023-04-07T03:58:01.055Z,84.3
2023-04-07T03:59:00.968Z,84.3
2023-04-07T04:00:01.067Z,84.3
2023-04-07T04:01:00.982Z,84.3
2023-04-07T04:02:01.038Z,84.3
2023-04-07T04:03:01.150Z,84.3
2023-04-07T04:04:01.230Z,84.3
2023-04-07T04:05:01.020Z,84.3
2023-04-07T04:06:00.978Z,84.3
2023-04-07T04:07:01.031Z,84.3
2023-04-07T04:08:00.374Z,84.6
2023-04-07T04:09:00.376Z,84.9
2023-04-07T04:10:00.403Z,84.9
2023-04-07T04:11:00.377Z,84.9
2023-04-07T04:12:00.409Z,84.9
2023-04-07T04:13:00.398Z,84.9
2023-04-07T04:14:00.379Z,84.9
2023-04-07T04:15:00.389Z,84.5
2023-04-07T04:16:00.406Z,84.9
2023-04-07T04:17:00.418Z,84.9
2023-04-07T04:18:00.469Z,84.9
2023-04-07T04:19:00.392Z,84.9
2023-04-07T04:20:00.414Z,84.9
2023-04-07T04:21:00.415Z,84.9
2023-04-07T04:22:00.413Z,84.6
2023-04-07T04:23:00.389Z,84.9
2023-04-07T04:24:00.389Z,84.9
2023-04-07T04:25:00.400Z,84.9
2023-04-07T04:26:00.416Z,84.9
2023-04-07T04:27:00.417Z,84.8
2023-04-07T04:28:00.417Z,84.9
2023-04-07T04:29:00.392Z,84.2
2023-04-07T04:30:00.432Z,84.2
2023-04-07T04:31:00.490Z,83.9
2023-04-07T04:32:00.474Z,84.2
2023-04-07T04:33:00.436Z,84.5
2023-04-07T04:34:00.430Z,84.5
2023-04-07T04:35:00.472Z,84.8
2023-04-07T04:36:00.440Z,84.8
2023-04-07T04:37:00.448Z,84.8
2023-04-07T04:38:00.397Z,85.2
2023-04-07T04:39:00.434Z,85.1
2023-04-07T04:40:00.417Z,84.2
2023-04-07T04:41:00.429Z,84.2
2023-04-07T04:42:00.441Z,84.2
2023-04-07T04:43:00.427Z,84.2
2023-04-07T04:44:00.418Z,84.2
2023-04-07T04:45:00.416Z,83.6
2023-04-07T04:46:00.454Z,83.6
2023-04-07T04:47:00.450Z,83
2023-04-07T04:48:00.459Z,83
2023-04-07T04:49:00.456Z,83
2023-04-07T04:50:00.474Z,83
2023-04-07T04:51:00.454Z,82.4
2023-04-07T04:52:00.628Z,82.4
2023-04-07T04:53:00.465Z,82.7
2023-04-07T04:54:00.439Z,82.4
2023-04-07T04:55:00.445Z,83
2023-04-07T04:56:00.649Z,83
2023-04-07T04:57:00.431Z,83.3
2023-04-07T04:58:00.432Z,83.6
2023-04-07T04:59:00.616Z,83.6
2023-04-07T05:00:00.544Z,83.9
2023-04-07T05:01:00.588Z,84.2
2023-04-07T05:02:00.726Z,84.5
2023-04-07T05:03:00.776Z,84.5
2023-04-07T05:04:00.904Z,84.5
2023-04-07T05:05:00.787Z,83.6
2023-04-07T05:06:00.585Z,84.2
2023-04-07T05:07:00.550Z,84.2
2023-04-07T05:08:00.549Z,84.2
2023-04-07T05:09:00.723Z,83.9
2023-04-07T05:10:00.729Z,83.6
2023-04-07T05:11:00.692Z,83.6
2023-04-07T05:12:00.731Z,82.9
2023-04-07T05:13:00.822Z,82.9
2023-04-07T05:14:00.635Z,83.6
2023-04-07T05:15:00.741Z,83.6
2023-04-07T05:16:00.513Z,83.9
2023-04-07T05:17:00.476Z,83.9
2023-04-07T05:18:00.550Z,84.2
2023-04-07T05:19:00.498Z,84.2
2023-04-07T05:20:00.925Z,84.2
2023-04-07T05:21:00.469Z,84.2
2023-04-07T05:22:00.497Z,84.5
2023-04-07T05:23:00.459Z,84.8
2023-04-07T05:24:00.458Z,84.8
2023-04-07T05:25:00.471Z,84.8
2023-04-07T05:26:00.473Z,84.8
2023-04-07T05:27:00.483Z,84.8
2023-04-07T05:28:00.468Z,85.1
2023-04-07T05:29:00.493Z,85.1
2023-04-07T05:30:00.647Z,85.4
2023-04-07T05:31:00.482Z,85.4
2023-04-07T05:32:00.536Z,85.4
2023-04-07T05:33:00.552Z,85.4
2023-04-07T05:34:00.494Z,85.5
2023-04-07T05:35:00.512Z,85.4
2023-04-07T05:36:00.637Z,85.4
2023-04-07T05:37:00.531Z,85.5
2023-04-07T05:38:00.481Z,85.5
2023-04-07T05:39:00.513Z,85.2
2023-04-07T05:40:00.843Z,85.2
2023-04-07T05:41:00.504Z,85.2
2023-04-07T05:42:00.509Z,85.5
2023-04-07T05:43:00.518Z,85.2
2023-04-07T05:44:00.517Z,85.2
2023-04-07T05:45:00.622Z,84.9
2023-04-07T05:46:00.550Z,84.9
2023-04-07T05:47:00.508Z,84.9
2023-04-07T05:48:00.563Z,84.9
2023-04-07T05:49:07.166Z,84.9
2023-04-07T05:50:00.755Z,84.9
2023-04-07T05:51:00.521Z,85.2
2023-04-07T05:52:00.652Z,85.2
2023-04-07T05:53:00.521Z,85.2
2023-04-07T05:54:00.500Z,84.9
2023-04-07T05:55:00.535Z,85.3
2023-04-07T05:56:00.506Z,84.9
2023-04-07T05:57:00.489Z,85
2023-04-07T05:58:00.497Z,85
2023-04-07T05:59:00.548Z,85
2023-04-07T06:00:00.548Z,85
2023-04-07T06:01:00.507Z,85
2023-04-07T06:02:00.630Z,85
2023-04-07T06:03:00.610Z,85
2023-04-07T06:04:00.517Z,85
2023-04-07T06:05:00.516Z,85
2023-04-07T06:06:00.516Z,85
2023-04-07T06:07:00.502Z,84.7
2023-04-07T06:08:00.497Z,84.4
2023-04-07T06:09:00.509Z,83.8
2023-04-07T06:10:00.530Z,84.1
2023-04-07T06:11:00.514Z,83.8
2023-04-07T06:12:00.504Z,83.5
2023-04-07T06:13:00.499Z,83.8
2023-04-07T06:14:00.507Z,83.8
2023-04-07T06:15:00.544Z,83.8
2023-04-07T06:16:00.537Z,83.8
2023-04-07T06:17:00.708Z,83.5
2023-04-07T06:18:00.529Z,83.2
2023-04-07T06:19:00.510Z,83.8
2023-04-07T06:20:00.535Z,83.8
2023-04-07T06:21:00.540Z,83.8
2023-04-07T06:22:00.513Z,83.5
2023-04-07T06:23:00.515Z,83.2
2023-04-07T06:24:00.526Z,83.2
2023-04-07T06:25:00.536Z,83.2
2023-04-07T06:26:00.536Z,82.3
2023-04-07T06:27:00.522Z,82
2023-04-07T06:28:00.510Z,82
2023-04-07T06:29:00.532Z,82
2023-04-07T06:30:00.547Z,82
2023-04-07T06:31:00.590Z,82
2023-04-07T06:32:00.548Z,82
2023-04-07T06:33:00.574Z,82
2023-04-07T06:34:00.527Z,81.7
2023-04-07T06:35:00.539Z,81.4
2023-04-07T06:36:00.540Z,81.4
2023-04-07T06:37:00.555Z,81.4
2023-04-07T06:38:00.574Z,81.4
2023-04-07T06:39:00.526Z,81.1
2023-04-07T06:40:00.572Z,81.1
2023-04-07T06:41:00.548Z,80.8
2023-04-07T06:42:00.534Z,80.8
2023-04-07T06:43:00.531Z,80.2
2023-04-07T06:44:00.555Z,80.2
2023-04-07T06:45:00.548Z,79.9
2023-04-07T06:46:00.593Z,78.7
2023-04-07T06:47:00.536Z,78.4
2023-04-07T06:48:00.563Z,78.4
2023-04-07T06:49:00.528Z,78.4
2023-04-07T06:50:00.565Z,78.1
2023-04-07T06:51:00.670Z,78.1
2023-04-07T06:52:00.536Z,78.1
2023-04-07T06:53:00.554Z,78.4
2023-04-07T06:54:00.538Z,78.1
2023-04-07T06:55:00.563Z,77.8
2023-04-07T06:56:00.565Z,77.7
2023-04-07T06:57:00.540Z,77.9
2023-04-07T06:58:00.554Z,77.2
2023-04-07T06:59:00.552Z,77.2
2023-04-07T07:00:00.606Z,77.2
2023-04-07T07:01:00.606Z,77.2
2023-04-07T07:02:00.635Z,76.6
2023-04-07T07:03:00.998Z,76.6
2023-04-07T07:04:00.654Z,76.6
2023-04-07T07:05:00.558Z,76.7
2023-04-07T07:06:00.585Z,76.4
2023-04-07T07:08:00.700Z,75.4
2023-04-07T07:09:00.676Z,75.4
2023-04-07T07:10:00.720Z,75.1
2023-04-07T07:11:00.726Z,74.2
2023-04-07T07:12:01.931Z,74.2
2023-04-07T07:13:00.707Z,74.3
2023-04-07T07:14:00.712Z,73.6
2023-04-07T07:15:00.720Z,72.3
2023-04-07T07:16:00.745Z,71.4
2023-04-07T07:17:00.715Z,72.4
2023-04-07T07:18:00.819Z,73
2023-04-07T07:19:00.695Z,72.4
2023-04-07T07:20:00.746Z,72.4
2023-04-07T07:21:00.708Z,72.4
2023-04-07T07:22:00.688Z,72.1
2023-04-07T07:23:00.708Z,71.1
2023-04-07T07:24:00.702Z,71.1
2023-04-07T07:25:00.719Z,71.8
2023-04-07T07:26:00.730Z,70.8
2023-04-07T07:27:00.693Z,70.5
2023-04-07T07:28:00.722Z,69.9
2023-04-07T07:29:00.696Z,70.2
2023-04-07T07:30:00.750Z,70.8
2023-04-07T07:31:00.831Z,70.8
2023-04-07T07:32:00.719Z,70.5
2023-04-07T07:33:00.751Z,69.9
2023-04-07T07:34:00.730Z,70.2
2023-04-07T07:35:00.751Z,70.5
2023-04-07T07:36:00.781Z,70.8
2023-04-07T07:37:00.716Z,70.5
2023-04-07T07:38:00.712Z,70.8
2023-04-07T07:39:00.719Z,70.8
2023-04-07T07:40:00.764Z,70.5
2023-04-07T07:41:00.751Z,70.5
2023-04-07T07:42:00.717Z,70.5
2023-04-07T07:43:00.750Z,70.6
2023-04-07T07:44:00.713Z,70.5
2023-04-07T07:45:00.748Z,69.9
2023-04-07T07:46:00.804Z,69.9
2023-04-07T07:47:00.726Z,69.3
2023-04-07T07:48:00.859Z,68.7
2023-04-07T07:49:00.721Z,68.7
2023-04-07T07:50:00.774Z,68.7
2023-04-07T07:51:00.717Z,68.7
2023-04-07T07:52:00.722Z,69
2023-04-07T07:53:00.726Z,69.3
2023-04-07T07:54:00.740Z,69
2023-04-07T07:55:00.774Z,69
2023-04-07T07:56:00.756Z,68.7
2023-04-07T07:57:00.724Z,68.7
2023-04-07T07:58:00.728Z,68.7
2023-04-07T07:59:00.742Z,69
2023-04-07T08:00:00.781Z,68.7
2023-04-07T08:01:00.730Z,68.7
2023-04-07T08:02:00.741Z,69.3
2023-04-07T08:03:00.824Z,69
2023-04-07T08:04:00.871Z,69.3
2023-04-07T08:05:00.874Z,69.6
2023-04-07T08:06:00.748Z,69.9
2023-04-07T08:07:00.754Z,70.5
2023-04-07T08:08:00.741Z,69.6
2023-04-07T08:09:00.751Z,70.2
2023-04-07T08:10:00.807Z,69.9
2023-04-07T08:11:00.769Z,69.9
2023-04-07T08:12:00.746Z,70.2
2023-04-07T08:13:00.744Z,69.9
2023-04-07T08:14:00.741Z,69.9
2023-04-07T08:15:00.773Z,69.9
2023-04-07T08:16:00.810Z,69.9
2023-04-07T08:17:00.741Z,69.9
2023-04-07T08:18:00.793Z,69.3
2023-04-07T08:19:00.746Z,69.6
2023-04-07T08:20:00.794Z,69.3
2023-04-07T08:21:00.769Z,69.3
2023-04-07T08:22:00.771Z,69.3
2023-04-07T08:23:00.753Z,69.3
2023-04-07T08:24:00.751Z,69.6
2023-04-07T08:25:00.799Z,70
2023-04-07T08:26:00.792Z,70
2023-04-07T08:27:00.760Z,70.3
2023-04-07T08:28:00.793Z,70
2023-04-07T08:29:00.757Z,70
2023-04-07T08:30:00.845Z,69.4
2023-04-07T08:31:00.799Z,69.4
2023-04-07T08:32:00.784Z,69.4
2023-04-07T08:33:00.788Z,68.8
2023-04-07T08:34:00.772Z,69.4
2023-04-07T08:35:00.836Z,69.4
2023-04-07T08:36:00.808Z,69.1
2023-04-07T08:37:00.767Z,68.8
2023-04-07T08:38:00.789Z,69.4
2023-04-07T08:39:00.767Z,68.8
2023-04-07T08:40:00.813Z,68.5
2023-04-07T08:41:00.792Z,67.6
2023-04-07T08:42:00.819Z,68.2
2023-04-07T08:43:00.770Z,68.2
2023-04-07T08:44:00.767Z,68.3
2023-04-07T08:45:01.237Z,67.6
2023-04-07T08:46:00.778Z,66.1
2023-04-07T08:47:00.862Z,66.4
2023-04-07T08:48:00.811Z,65.8
2023-04-07T08:49:00.798Z,65.5
2023-04-07T08:50:00.831Z,65.8
2023-04-07T08:51:00.793Z,65.2
2023-04-07T08:52:00.798Z,63.3
2023-04-07T08:53:00.791Z,64
2023-04-07T08:54:00.786Z,63.6
2023-04-07T08:55:00.782Z,63.3
2023-04-07T08:56:00.804Z,63.9
2023-04-07T08:57:00.805Z,62.7
2023-04-07T08:58:02.169Z,62.1
2023-04-07T08:59:00.810Z,62.7
2023-04-07T09:00:00.802Z,63.7
2023-04-07T09:01:00.847Z,63.3
2023-04-07T09:02:00.832Z,62.1
2023-04-07T09:03:01.003Z,62.4
2023-04-07T09:04:00.939Z,62.4
2023-04-07T09:05:00.818Z,62.7
2023-04-07T09:06:00.812Z,62.4
2023-04-07T09:07:00.836Z,61.5
2023-04-07T09:08:00.797Z,62.1
2023-04-07T09:09:00.801Z,60.2
2023-04-07T09:10:00.836Z,60.5
2023-04-07T09:11:00.832Z,61.5
2023-04-07T09:12:00.825Z,61.8
2023-04-07T09:13:00.828Z,62.1
2023-04-07T09:14:00.829Z,61.2
2023-04-07T09:15:00.841Z,60.9
2023-04-07T09:16:00.848Z,61.5
2023-04-07T09:17:00.853Z,59
2023-04-07T09:18:00.925Z,60.2
2023-04-07T09:19:00.848Z,59.6
2023-04-07T09:20:00.989Z,60.2
2023-04-07T09:21:00.821Z,60.9
2023-04-07T09:22:00.927Z,58.7
2023-04-07T09:23:00.850Z,59.9
2023-04-07T09:24:00.847Z,60.2
2023-04-07T09:25:00.828Z,60.2
2023-04-07T09:26:00.884Z,59.6
2023-04-07T09:27:00.864Z,60.2
2023-04-07T09:28:00.850Z,60.2
2023-04-07T09:29:00.854Z,60.2
2023-04-07T09:30:00.968Z,60.2
2023-04-07T09:31:00.845Z,60.6
2023-04-07T09:32:00.872Z,60.6
2023-04-07T09:33:00.907Z,60.6
2023-04-07T09:34:00.852Z,60.2
2023-04-07T09:35:00.889Z,60.2
2023-04-07T09:36:01.675Z,59.6
2023-04-07T09:37:00.847Z,60.3
2023-04-07T09:38:00.845Z,59.9
2023-04-07T09:39:00.849Z,59
2023-04-07T09:40:00.862Z,59.9
2023-04-07T09:41:00.893Z,59.3
2023-04-07T09:42:00.862Z,58.4
2023-04-07T09:43:00.845Z,59.6
2023-04-07T09:44:00.860Z,60
2023-04-07T09:45:00.848Z,59.7
2023-04-07T09:46:00.883Z,59
2023-04-07T09:47:00.852Z,59.6
2023-04-07T09:48:00.879Z,59.7
2023-04-07T09:49:00.835Z,58.4
2023-04-07T09:50:00.883Z,57.1
2023-04-07T09:51:00.840Z,56.5
2023-04-07T09:52:00.883Z,57.8
2023-04-07T09:53:00.849Z,57.2
2023-04-07T09:54:00.841Z,57.2
2023-04-07T09:55:00.883Z,57.2
2023-04-07T09:56:00.882Z,57.8
2023-04-07T09:57:00.872Z,58.4
2023-04-07T09:58:00.980Z,58.1
2023-04-07T09:59:00.856Z,57.2
2023-04-07T10:00:00.884Z,57.2
2023-04-07T10:01:00.883Z,57.2
2023-04-07T10:02:01.151Z,57.2
2023-04-07T10:03:01.019Z,57.2
2023-04-07T10:04:00.901Z,57.2
2023-04-07T10:05:00.921Z,56.5
2023-04-07T10:06:00.855Z,56.5
2023-04-07T10:07:00.886Z,57.2
2023-04-07T10:08:00.866Z,57.8
2023-04-07T10:09:00.834Z,57.8
2023-04-07T10:10:00.846Z,57.8
2023-04-07T10:11:00.798Z,56.6
2023-04-07T10:12:00.746Z,55.9
2023-04-07T10:13:00.716Z,55.3
2023-04-07T10:14:00.694Z,55.9
2023-04-07T10:15:00.698Z,56.6
2023-04-07T10:16:00.618Z,56.6
2023-04-07T10:17:00.630Z,56.6
2023-04-07T10:18:00.582Z,56.6
2023-04-07T10:19:00.529Z,55.9
2023-04-07T10:20:00.543Z,56.9
2023-04-07T10:21:00.502Z,55.6
2023-04-07T10:22:00.445Z,56.6
2023-04-07T10:23:00.485Z,55.6
2023-04-07T10:24:00.480Z,55.9
2023-04-07T10:25:00.498Z,54.7
2023-04-07T10:26:00.471Z,55.6
2023-04-07T10:27:00.481Z,55.9
2023-04-07T10:28:00.481Z,55.9
2023-04-07T10:29:00.457Z,56.6
2023-04-07T10:30:00.525Z,55.9
2023-04-07T10:31:00.475Z,56.6
2023-04-07T10:32:00.451Z,56.9
2023-04-07T10:33:00.546Z,56.9
2023-04-07T10:34:00.470Z,57.2
2023-04-07T10:35:00.494Z,55.9
2023-04-07T10:36:00.539Z,55.6
2023-04-07T10:37:00.482Z,54.7
2023-04-07T10:38:00.515Z,55.9
2023-04-07T10:39:00.497Z,56.9
2023-04-07T10:40:00.522Z,56.6
2023-04-07T10:41:00.487Z,56.9
2023-04-07T10:42:00.478Z,56
2023-04-07T10:43:00.523Z,56.3
2023-04-07T10:44:00.478Z,54.7
2023-04-07T10:45:00.504Z,54.7
2023-04-07T10:46:00.553Z,55.3
2023-04-07T10:47:00.496Z,55.3
2023-04-07T10:48:00.487Z,55.6
2023-04-07T10:49:00.487Z,55.3
2023-04-07T10:50:00.511Z,55.3
2023-04-07T10:51:00.514Z,55.3
2023-04-07T10:52:00.473Z,56
2023-04-07T10:53:00.511Z,56
2023-04-07T10:54:00.476Z,54.7
2023-04-07T10:55:00.507Z,54.1
2023-04-07T10:56:00.483Z,53.4
2023-04-07T10:57:00.490Z,54
2023-04-07T10:58:00.479Z,54.7
2023-04-07T10:59:00.488Z,55.9
2023-04-07T11:00:00.612Z,55.9
2023-04-07T11:01:00.528Z,55.9
2023-04-07T11:02:00.558Z,55.3
2023-04-07T11:03:00.710Z,54.7
2023-04-07T11:04:00.566Z,55
2023-04-07T11:05:00.510Z,55.3
2023-04-07T11:06:00.509Z,54.7
2023-04-07T11:07:00.488Z,55.3
2023-04-07T11:08:00.513Z,54.7
2023-04-07T11:09:00.500Z,55
2023-04-07T11:10:00.541Z,54.7
2023-04-07T11:11:00.515Z,54.7
2023-04-07T11:12:00.496Z,55.6
2023-04-07T11:13:00.512Z,56.6
2023-04-07T11:14:00.522Z,56.3
2023-04-07T11:15:00.500Z,56.6
2023-04-07T11:16:00.565Z,55.9
2023-04-07T11:17:00.500Z,56
2023-04-07T11:18:00.566Z,56
2023-04-07T11:19:00.504Z,54.7
2023-04-07T11:20:00.515Z,54.4
2023-04-07T11:21:00.530Z,56
2023-04-07T11:22:00.522Z,55.3
2023-04-07T11:23:00.511Z,56
2023-04-07T11:24:00.505Z,55.4
2023-04-07T11:25:00.534Z,56
2023-04-07T11:26:00.531Z,56
2023-04-07T11:27:00.513Z,53.8
2023-04-07T11:28:00.510Z,54.5
2023-04-07T11:29:00.521Z,52.3
2023-04-07T11:30:00.518Z,53.2
2023-04-07T11:31:00.706Z,51.9
2023-04-07T11:32:00.523Z,52.3
2023-04-07T11:33:00.577Z,52
2023-04-07T11:34:00.522Z,51.6
2023-04-07T11:35:00.526Z,52.3
2023-04-07T11:36:00.585Z,52.3
2023-04-07T11:37:00.527Z,52.9
2023-04-07T11:38:00.523Z,53.5
2023-04-07T11:39:00.521Z,52.9
2023-04-07T11:40:00.565Z,51.7
2023-04-07T11:41:00.557Z,50.4
2023-04-07T11:42:00.530Z,51
2023-04-07T11:43:00.527Z,52.3
2023-04-07T11:44:00.549Z,51.7
2023-04-07T11:45:00.566Z,51.7
2023-04-07T11:46:01.098Z,51.4
2023-04-07T11:47:00.756Z,51.7
2023-04-07T11:48:00.592Z,51.7
2023-04-07T11:49:00.529Z,50.8
2023-04-07T11:50:00.565Z,49.5
2023-04-07T11:51:00.559Z,49.5
2023-04-07T11:52:00.606Z,49.8
2023-04-07T11:53:00.569Z,50.4
2023-04-07T11:54:00.536Z,51.7
2023-04-07T11:55:00.542Z,50.4
2023-04-07T11:56:00.553Z,51.1
2023-04-07T11:57:00.589Z,50.8
2023-04-07T11:58:00.554Z,49.8
2023-04-07T11:59:00.546Z,49.5
2023-04-07T12:00:00.574Z,50.1
2023-04-07T12:01:00.553Z,49.8
2023-04-07T12:02:00.623Z,49.8
2023-04-07T12:03:00.779Z,49.2
2023-04-07T12:04:00.842Z,49.5
2023-04-07T12:05:00.586Z,49.2
2023-04-07T12:06:00.552Z,49.5
2023-04-07T12:07:00.577Z,50.5
2023-04-07T12:08:00.556Z,50.2
2023-04-07T12:09:00.576Z,50.5
2023-04-07T12:10:00.555Z,49.8
2023-04-07T12:11:00.575Z,49.9
2023-04-07T12:12:00.578Z,48.3
2023-04-07T12:13:00.555Z,48.6
2023-04-07T12:14:00.579Z,47.6
2023-04-07T12:15:00.578Z,49.2
2023-04-07T12:16:00.630Z,49.8
2023-04-07T12:17:00.593Z,49.2
2023-04-07T12:18:00.646Z,49.5
2023-04-07T12:19:00.581Z,48.2
2023-04-07T12:20:00.576Z,48.8
2023-04-07T12:21:00.585Z,49.2
2023-04-07T12:22:00.591Z,49.8
2023-04-07T12:23:00.591Z,49.5
2023-04-07T12:24:00.584Z,48.5
2023-04-07T12:25:00.582Z,49.1
2023-04-07T12:26:00.593Z,50.4
2023-04-07T12:27:00.584Z,50.4
2023-04-07T12:28:00.570Z,48.5
2023-04-07T12:29:00.579Z,49.1
2023-04-07T12:30:00.620Z,49.4
2023-04-07T12:31:00.591Z,48.8
2023-04-07T12:32:00.641Z,49.8
2023-04-07T12:33:00.677Z,50.4
2023-04-07T12:34:00.603Z,50.4
2023-04-07T12:35:00.589Z,49.1
2023-04-07T12:36:00.683Z,50.4
2023-04-07T12:37:00.601Z,51
2023-04-07T12:38:00.601Z,49.1
2023-04-07T12:39:00.583Z,49.1
2023-04-07T12:40:00.777Z,49.7
2023-04-07T12:41:00.608Z,50.4
2023-04-07T12:42:00.612Z,51.6
2023-04-07T12:43:00.594Z,51.3
2023-04-07T12:44:00.613Z,52.2
2023-04-07T12:45:00.614Z,53.1
2023-04-07T12:46:00.640Z,54.1
2023-04-07T12:47:00.614Z,54.7
2023-04-07T12:48:00.641Z,54.7
2023-04-07T12:49:00.653Z,55.9
2023-04-07T12:50:00.635Z,56.5
2023-04-07T12:51:00.618Z,57.2
2023-04-07T12:52:00.606Z,57.2
2023-04-07T12:53:00.625Z,57.8
2023-04-07T12:54:00.608Z,58.7
2023-04-07T12:55:00.630Z,59
2023-04-07T12:56:00.642Z,59
2023-04-07T12:57:00.612Z,59.7
2023-04-07T12:58:00.624Z,60.9
2023-04-07T12:59:00.622Z,60.3
2023-04-07T13:00:00.772Z,59.6
2023-04-07T13:01:00.699Z,59.3
2023-04-07T13:02:00.761Z,59.3
2023-04-07T13:03:00.815Z,61.1
2023-04-07T13:04:00.811Z,62.7
2023-04-07T13:05:00.685Z,62.7
2023-04-07T13:06:00.634Z,63.7
2023-04-07T13:07:00.611Z,64
2023-04-07T13:08:00.615Z,64.6
2023-04-07T13:09:00.632Z,64.6
2023-04-07T13:10:00.633Z,65.2
2023-04-07T13:11:00.637Z,66.4
2023-04-07T13:12:00.622Z,66.4
2023-04-07T13:13:00.636Z,67
2023-04-07T13:14:01.549Z,66.4
2023-04-07T13:15:00.839Z,65.5
2023-04-07T13:16:00.650Z,67
2023-04-07T13:17:00.686Z,67.6
2023-04-07T13:18:00.628Z,68.2
2023-04-07T13:19:00.646Z,70.1
2023-04-07T13:20:00.653Z,70.7
2023-04-07T13:22:00.814Z,69.5
2023-04-07T13:23:07.108Z,70.1
2023-04-07T13:24:00.668Z,70.1
2023-04-07T13:25:01.521Z,70.5
2023-04-07T13:26:00.646Z,70.5
2023-04-07T13:27:00.636Z,70.2
2023-04-07T13:28:00.639Z,69.9